New Jersey Responder — WBO8578 — position and weather

sailwx.info

Track history (hours):
 
Tides and Currents Weather Stations Pressure Air Temp Water Temp Dewpoint Dewpoint Depression Visibility Wind Speed Wind Dir Waves Ship Positions

New Jersey Responder

Owner: MARINE SPILL RESPONSE CORP, HERNDON, VA. More information available from US FCC via Universal Licensing System and Coast Guard Vessel Documentation Center.

Last reported at 2016-Jun-26 11:04 UTC. Time now 2016-Jun-26 19:17 UTC.
Position N 40°32' W 074°15'.

; draft 4 m.

Type: Pollution control. MMSI: 366594000.

Date/timePositionNaut miles runAvg speedWind from/ knotsBaromVisibWave heightAir tempDewpointWater temp
2016-Jun-26 11:04N 40°32' W 074°15'0 0.0
2016-Jun-26 10:28N 40°32' W 074°15'0 0.0
2016-Jun-26 09:25N 40°32' W 074°15'0 0.0
2016-Jun-26 08:13N 40°32' W 074°15'0 0.0
2016-Jun-26 07:31N 40°32' W 074°15'5 0.1
2016-Jun-24 09:11N 40°30' W 074°09'2 3.3
2016-Jun-24 08:33N 40°30' W 074°06'9 6.5
2016-Jun-24 07:11N 40°27' W 073°55'3 0.9
2016-Jun-24 04:12N 40°29' W 073°55'6 9.7
2016-Jun-24 03:33N 40°33' W 074°02'8 7.9
2016-Jun-24 02:33N 40°41' W 074°02'8 2.5
2016-Jun-23 23:32N 40°48' W 073°59'8 8.2
2016-Jun-23 22:33N 40°40' W 074°02'  
Track history (hours):
 
Tides and Currents Weather Stations Pressure Air Temp Water Temp Dewpoint Dewpoint Depression Visibility Wind Speed Wind Dir Waves Ship Positions

New Jersey Responder

Owner: MARINE SPILL RESPONSE CORP, HERNDON, VA. More information available from US FCC via Universal Licensing System and Coast Guard Vessel Documentation Center.

Last reported at 2016-Jun-26 11:04 UTC. Time now 2016-Jun-26 19:17 UTC.
Position N 40°32' W 074°15'.

; draft 4 m.

Type: Pollution control. MMSI: 366594000.

Date/timePositionNaut miles runAvg speedWind from/ knotsBaromVisibWave heightAir tempDewpointWater temp
2016-Jun-26 11:04N 40°32' W 074°15'0 0.0
2016-Jun-26 10:28N 40°32' W 074°15'0 0.0
2016-Jun-26 09:25N 40°32' W 074°15'0 0.0
2016-Jun-26 08:13N 40°32' W 074°15'0 0.0
2016-Jun-26 07:31N 40°32' W 074°15'5 0.1
2016-Jun-24 09:11N 40°30' W 074°09'2 3.3
2016-Jun-24 08:33N 40°30' W 074°06'9 6.5
2016-Jun-24 07:11N 40°27' W 073°55'3 0.9
2016-Jun-24 04:12N 40°29' W 073°55'6 9.7
2016-Jun-24 03:33N 40°33' W 074°02'8 7.9
2016-Jun-24 02:33N 40°41' W 074°02'8 2.5
2016-Jun-23 23:32N 40°48' W 073°59'8 8.2
2016-Jun-23 22:33N 40°40' W 074°02'  

Dump ship's entire track history